Time;durP1;ratioP1;P1;durP2;ratioP2;P2;SDS_P1;SDS_P2;PMS_P1;PMS_P2;Temp;Humidity;BMP_temperature;BMP_pressure;BME280_temperature;BME280_humidity;BME280_pressure;Samples;Min_cycle;Max_cycle;Signal;HPM_P1;HPM_P2
2023/07/23 00:02:05;;;;;;;16.98;5.75;;;;;;;;;;5055837;28;20421;-67
2023/07/23 00:04:32;;;;;;;17.92;6.20;;;;;;;;;;5048582;28;20073;-68
2023/07/23 00:07:00;;;;;;;18.98;5.47;;;;;;;;;;5068333;28;20044;-68
2023/07/23 00:09:27;;;;;;;20.05;5.40;;;;;;;;;;5070017;28;20044;-68
2023/07/23 00:11:54;;;;;;;19.20;5.63;;;;;;;;;;5069168;28;20037;-67
2023/07/23 00:14:22;;;;;;;16.27;5.30;;;;;;;;;;5067809;28;20068;-67
2023/07/23 00:16:50;;;;;;;18.58;6.18;;;;;;;;;;5071116;28;20053;-68
2023/07/23 00:19:19;;;;;;;18.98;5.82;;;;;;;;;;5070956;28;20053;-67
2023/07/23 00:21:47;;;;;;;15.35;5.70;;;;;;;;;;5070889;28;20048;-68
2023/07/23 00:24:14;;;;;;;16.30;6.10;;;;;;;;;;5065481;28;20426;-68
2023/07/23 00:26:42;;;;;;;15.15;5.32;;;;;;;;;;5070939;28;20059;-67
2023/07/23 00:29:09;;;;;;;15.60;5.85;;;;;;;;;;5056089;28;20053;-67
2023/07/23 00:31:36;;;;;;;16.33;5.82;;;;;;;;;;5068676;28;20053;-67
2023/07/23 00:34:05;;;;;;;13.18;5.53;;;;;;;;;;5070946;28;20154;-68
2023/07/23 00:36:32;;;;;;;17.30;5.55;;;;;;;;;;5055020;28;20407;-67
2023/07/23 00:38:59;;;;;;;17.23;6.15;;;;;;;;;;5069247;28;20051;-67
2023/07/23 00:41:27;;;;;;;21.77;6.50;;;;;;;;;;5071291;28;20045;-68
2023/07/23 00:43:55;;;;;;;14.23;5.70;;;;;;;;;;5070073;28;20048;-67
2023/07/23 00:46:23;;;;;;;15.52;6.05;;;;;;;;;;5071102;28;20084;-68
2023/07/23 00:48:50;;;;;;;18.50;6.63;;;;;;;;;;5068174;28;20056;-67
2023/07/23 00:51:19;;;;;;;15.38;5.97;;;;;;;;;;5069528;28;20063;-67
2023/07/23 00:53:47;;;;;;;16.60;6.50;;;;;;;;;;5069904;28;20755;-68
2023/07/23 00:56:14;;;;;;;17.42;5.75;;;;;;;;;;5071232;28;20071;-68
2023/07/23 00:58:42;;;;;;;21.10;6.53;;;;;;;;;;5070550;28;20273;-68
2023/07/23 01:01:09;;;;;;;21.27;6.47;;;;;;;;;;5065400;28;20067;-68
2023/07/23 01:03:36;;;;;;;17.23;6.90;;;;;;;;;;5071115;28;20048;-68
2023/07/23 01:06:04;;;;;;;15.20;6.72;;;;;;;;;;5070042;28;20053;-67
2023/07/23 01:08:33;;;;;;;15.07;6.13;;;;;;;;;;5071165;28;20079;-67
2023/07/23 01:11:00;;;;;;;14.82;5.80;;;;;;;;;;5066852;28;20518;-68
2023/07/23 01:13:28;;;;;;;20.13;5.70;;;;;;;;;;5069673;28;20048;-68
2023/07/23 01:15:55;;;;;;;18.08;5.88;;;;;;;;;;5044393;28;20064;-67
2023/07/23 01:18:23;;;;;;;16.23;5.72;;;;;;;;;;5066903;28;20502;-67
2023/07/23 01:20:51;;;;;;;16.52;5.90;;;;;;;;;;5069270;28;20406;-68
2023/07/23 01:23:19;;;;;;;16.10;5.88;;;;;;;;;;5066344;28;20051;-67
2023/07/23 01:25:46;;;;;;;19.83;5.97;;;;;;;;;;5072391;28;20131;-68
2023/07/23 01:28:14;;;;;;;16.20;6.00;;;;;;;;;;5070380;28;20407;-68
2023/07/23 01:30:41;;;;;;;15.00;5.55;;;;;;;;;;5069416;28;20068;-68
2023/07/23 01:33:09;;;;;;;19.13;6.35;;;;;;;;;;5064808;28;20792;-68
2023/07/23 01:35:36;;;;;;;20.27;5.93;;;;;;;;;;5070640;28;20109;-68
2023/07/23 01:38:05;;;;;;;14.73;5.68;;;;;;;;;;5066434;28;20090;-68
2023/07/23 01:40:33;;;;;;;16.85;5.82;;;;;;;;;;5069508;28;20482;-68
2023/07/23 01:43:01;;;;;;;18.83;5.57;;;;;;;;;;5070483;28;20051;-68
2023/07/23 01:45:29;;;;;;;20.27;6.57;;;;;;;;;;5070316;28;20432;-68
2023/07/23 01:47:57;;;;;;;17.33;6.57;;;;;;;;;;5068888;28;20044;-68
2023/07/23 01:50:24;;;;;;;13.95;5.70;;;;;;;;;;5067132;28;20411;-68
2023/07/23 01:52:51;;;;;;;19.05;5.95;;;;;;;;;;5067143;28;20380;-69
2023/07/23 01:55:18;;;;;;;19.75;5.88;;;;;;;;;;5060533;28;20070;-69
2023/07/23 01:57:47;;;;;;;15.20;5.60;;;;;;;;;;5069659;28;20525;-68
2023/07/23 02:00:14;;;;;;;20.05;5.72;;;;;;;;;;5069465;28;20049;-69
2023/07/23 02:02:42;;;;;;;14.55;5.22;;;;;;;;;;5070514;28;20070;-68
2023/07/23 02:05:09;;;;;;;17.30;5.72;;;;;;;;;;5068151;28;20074;-68
2023/07/23 02:07:36;;;;;;;13.02;5.53;;;;;;;;;;5068467;28;20509;-68
2023/07/23 02:10:04;;;;;;;16.90;5.57;;;;;;;;;;5063259;28;20045;-68
2023/07/23 02:12:31;;;;;;;17.23;6.20;;;;;;;;;;5067902;28;20045;-69
2023/07/23 02:15:00;;;;;;;16.00;5.47;;;;;;;;;;5068789;28;20052;-69
2023/07/23 02:17:27;;;;;;;12.07;5.32;;;;;;;;;;5065030;28;20047;-69
2023/07/23 02:19:54;;;;;;;19.80;6.35;;;;;;;;;;5066384;28;20044;-69
2023/07/23 02:22:22;;;;;;;18.98;6.50;;;;;;;;;;5068882;28;20040;-69
2023/07/23 02:24:49;;;;;;;16.60;5.90;;;;;;;;;;5067546;28;20051;-68
2023/07/23 02:27:16;;;;;;;16.63;6.03;;;;;;;;;;5067363;28;20052;-68
2023/07/23 02:29:43;;;;;;;15.15;5.68;;;;;;;;;;5061349;28;20048;-67
2023/07/23 02:32:12;;;;;;;14.13;5.68;;;;;;;;;;5068618;28;20052;-68
2023/07/23 02:34:39;;;;;;;11.00;5.07;;;;;;;;;;5067723;28;20056;-69
2023/07/23 02:37:07;;;;;;;14.52;5.78;;;;;;;;;;5066396;28;20040;-68
2023/07/23 02:39:34;;;;;;;15.80;5.97;;;;;;;;;;5067699;28;20388;-69
2023/07/23 02:42:02;;;;;;;14.48;6.07;;;;;;;;;;5065123;28;20138;-68
2023/07/23 02:44:29;;;;;;;14.98;6.35;;;;;;;;;;5062440;28;20091;-69
2023/07/23 02:46:56;;;;;;;13.95;5.85;;;;;;;;;;5068434;28;20037;-69
2023/07/23 02:49:25;;;;;;;15.18;5.13;;;;;;;;;;5064214;28;20461;-68
2023/07/23 02:51:52;;;;;;;15.75;5.35;;;;;;;;;;5063063;28;20045;-68
2023/07/23 02:54:19;;;;;;;12.63;5.32;;;;;;;;;;5067491;28;20052;-69
2023/07/23 02:56:46;;;;;;;14.13;5.55;;;;;;;;;;5068091;28;20131;-69
2023/07/23 02:59:14;;;;;;;12.80;5.38;;;;;;;;;;5056592;28;20507;-69
2023/07/23 03:01:41;;;;;;;12.95;5.30;;;;;;;;;;5066825;28;20060;-69
2023/07/23 03:04:08;;;;;;;12.73;5.45;;;;;;;;;;5048798;28;20056;-69
2023/07/23 03:06:37;;;;;;;14.05;5.95;;;;;;;;;;5064189;28;20048;-69
2023/07/23 03:09:04;;;;;;;12.48;5.65;;;;;;;;;;5062649;28;20509;-69
2023/07/23 03:11:31;;;;;;;13.35;5.63;;;;;;;;;;5067426;28;20122;-69
2023/07/23 03:13:59;;;;;;;12.82;5.97;;;;;;;;;;5062889;28;20421;-69
2023/07/23 03:16:26;;;;;;;13.32;5.85;;;;;;;;;;5051983;28;20399;-68
2023/07/23 03:18:53;;;;;;;13.50;5.53;;;;;;;;;;5065276;28;20063;-69
2023/07/23 03:21:20;;;;;;;17.20;6.18;;;;;;;;;;5061707;28;20613;-68
2023/07/23 03:23:49;;;;;;;19.08;6.13;;;;;;;;;;5063925;28;20059;-69
2023/07/23 03:26:16;;;;;;;13.68;6.03;;;;;;;;;;5066914;28;20071;-69
2023/07/23 03:28:43;;;;;;;17.95;6.28;;;;;;;;;;5065929;28;20048;-68
2023/07/23 03:31:11;;;;;;;14.25;5.65;;;;;;;;;;5065521;28;20080;-68
2023/07/23 03:33:38;;;;;;;12.27;5.53;;;;;;;;;;5047890;28;20056;-68
2023/07/23 03:36:10;;;;;;;12.73;5.90;;;;;;;;;;5062938;28;20052;-69
2023/07/23 03:38:37;;;;;;;15.57;5.82;;;;;;;;;;5068625;28;20052;-68
2023/07/23 03:41:06;;;;;;;17.75;6.28;;;;;;;;;;5066506;28;20036;-68
2023/07/23 03:43:33;;;;;;;13.60;5.38;;;;;;;;;;5068319;28;20049;-69
2023/07/23 03:46:00;;;;;;;15.95;6.70;;;;;;;;;;5064362;28;20114;-69
2023/07/23 03:48:28;;;;;;;14.60;6.13;;;;;;;;;;5065537;28;20040;-68
2023/07/23 03:50:55;;;;;;;14.40;5.90;;;;;;;;;;5064117;28;20610;-68
2023/07/23 03:53:22;;;;;;;16.27;6.00;;;;;;;;;;5065606;28;20400;-68
2023/07/23 03:55:49;;;;;;;14.38;5.72;;;;;;;;;;5058811;28;20337;-65
2023/07/23 03:58:18;;;;;;;16.85;6.30;;;;;;;;;;5068311;28;20048;-64
2023/07/23 04:00:45;;;;;;;14.85;5.75;;;;;;;;;;5064894;28;20040;-65
2023/07/23 04:03:12;;;;;;;19.40;6.30;;;;;;;;;;5063700;28;20060;-64
2023/07/23 04:05:40;;;;;;;16.42;6.13;;;;;;;;;;5062057;28;20060;-64
2023/07/23 04:08:07;;;;;;;15.27;5.93;;;;;;;;;;5067222;28;20045;-68
2023/07/23 04:10:34;;;;;;;17.20;6.18;;;;;;;;;;5058355;28;20057;-67
2023/07/23 04:13:03;;;;;;;17.67;5.80;;;;;;;;;;5068146;28;20066;-69
2023/07/23 04:15:32;;;;;;;20.88;6.40;;;;;;;;;;5064816;28;20053;-69
2023/07/23 04:17:59;;;;;;;14.23;5.20;;;;;;;;;;5063766;28;20040;-68
2023/07/23 04:20:26;;;;;;;12.95;5.50;;;;;;;;;;5066443;28;20071;-69
2023/07/23 04:22:54;;;;;;;14.57;5.75;;;;;;;;;;5065796;28;20491;-69
2023/07/23 04:25:21;;;;;;;14.25;5.38;;;;;;;;;;5062289;28;20049;-68
2023/07/23 04:27:48;;;;;;;12.98;5.32;;;;;;;;;;5049212;28;20059;-67
2023/07/23 04:30:15;;;;;;;15.98;5.97;;;;;;;;;;5061533;28;20131;-68
2023/07/23 04:32:44;;;;;;;17.17;5.45;;;;;;;;;;5066136;28;20123;-69
2023/07/23 04:35:11;;;;;;;14.85;5.75;;;;;;;;;;5067772;28;20052;-68
2023/07/23 04:37:38;;;;;;;15.88;5.60;;;;;;;;;;5064202;28;20048;-68
2023/07/23 04:40:07;;;;;;;12.48;5.13;;;;;;;;;;5067405;28;20407;-68
2023/07/23 04:42:34;;;;;;;12.48;5.28;;;;;;;;;;5065430;28;20117;-68
2023/07/23 04:45:01;;;;;;;13.00;5.45;;;;;;;;;;5063845;28;20052;-68
2023/07/23 04:47:29;;;;;;;14.40;5.88;;;;;;;;;;5066519;28;20136;-68
2023/07/23 04:49:57;;;;;;;19.90;5.75;;;;;;;;;;5066012;28;20490;-68
2023/07/23 04:52:25;;;;;;;11.43;5.22;;;;;;;;;;5070597;28;20059;-69
2023/07/23 04:54:52;;;;;;;12.48;5.60;;;;;;;;;;5070103;28;20466;-68
2023/07/23 04:57:19;;;;;;;19.85;5.60;;;;;;;;;;5065832;28;20055;-68
2023/07/23 04:59:47;;;;;;;11.32;5.18;;;;;;;;;;5045886;28;20056;-70
2023/07/23 05:02:14;;;;;;;13.25;5.45;;;;;;;;;;5066851;28;20407;-71
2023/07/23 05:04:41;;;;;;;11.65;5.60;;;;;;;;;;5065135;28;20067;-70
2023/07/23 05:07:10;;;;;;;9.93;4.43;;;;;;;;;;5070679;28;20522;-71
2023/07/23 05:09:37;;;;;;;12.23;4.95;;;;;;;;;;5067166;28;20053;-71
2023/07/23 05:12:05;;;;;;;10.75;5.60;;;;;;;;;;5068026;28;20127;-70
2023/07/23 05:14:34;;;;;;;16.48;5.60;;;;;;;;;;5054090;28;20045;-70
2023/07/23 05:17:01;;;;;;;14.55;5.20;;;;;;;;;;5070049;28;20045;-70
2023/07/23 05:19:28;;;;;;;10.88;4.65;;;;;;;;;;5067620;28;20044;-70
2023/07/23 05:21:57;;;;;;;11.38;5.10;;;;;;;;;;5068173;28;20098;-70
2023/07/23 05:24:25;;;;;;;12.95;5.18;;;;;;;;;;5069348;28;20163;-69
2023/07/23 05:26:53;;;;;;;13.60;5.30;;;;;;;;;;5067460;28;20052;-68
2023/07/23 05:29:20;;;;;;;11.48;5.30;;;;;;;;;;5056309;28;20049;-69
2023/07/23 05:31:47;;;;;;;14.40;5.53;;;;;;;;;;5068368;28;20049;-70
2023/07/23 05:34:14;;;;;;;15.23;5.13;;;;;;;;;;5068088;28;20037;-68
2023/07/23 05:36:42;;;;;;;16.65;4.93;;;;;;;;;;5065600;28;20056;-68
2023/07/23 05:39:09;;;;;;;15.68;5.50;;;;;;;;;;5051843;28;20147;-69
2023/07/23 05:41:38;;;;;;;10.05;4.68;;;;;;;;;;5063365;28;20127;-68
2023/07/23 05:44:05;;;;;;;10.18;5.07;;;;;;;;;;5070560;28;20704;-69
2023/07/23 05:46:33;;;;;;;9.75;4.90;;;;;;;;;;5069362;28;20127;-69
2023/07/23 05:49:00;;;;;;;12.35;4.82;;;;;;;;;;5069788;28;20119;-70
2023/07/23 05:51:27;;;;;;;13.40;5.03;;;;;;;;;;5068802;28;20044;-67
2023/07/23 05:53:55;;;;;;;11.98;5.50;;;;;;;;;;5066472;28;20381;-68
2023/07/23 05:56:22;;;;;;;12.90;5.03;;;;;;;;;;5069377;28;20527;-68
2023/07/23 05:58:51;;;;;;;14.57;5.53;;;;;;;;;;5067438;28;20064;-71
2023/07/23 06:01:18;;;;;;;13.50;5.43;;;;;;;;;;5068694;28;20048;-68
2023/07/23 06:03:45;;;;;;;18.33;5.65;;;;;;;;;;5060893;28;20060;-68
2023/07/23 06:06:12;;;;;;;12.25;5.30;;;;;;;;;;5063285;28;20110;-68
2023/07/23 06:08:40;;;;;;;19.38;6.88;;;;;;;;;;5064562;28;20053;-68
2023/07/23 06:11:07;;;;;;;11.73;5.18;;;;;;;;;;5064833;28;20060;-68
2023/07/23 06:13:35;;;;;;;14.23;6.55;;;;;;;;;;5065473;28;20081;-67
2023/07/23 06:16:03;;;;;;;14.93;5.53;;;;;;;;;;5064146;28;20544;-67
2023/07/23 06:18:31;;;;;;;12.35;5.63;;;;;;;;;;5055207;28;20064;-72
2023/07/23 06:20:58;;;;;;;15.18;6.10;;;;;;;;;;5067416;28;20052;-70
2023/07/23 06:23:25;;;;;;;10.05;5.93;;;;;;;;;;5065923;28;20056;-71
2023/07/23 06:25:55;;;;;;;22.40;7.90;;;;;;;;;;5061120;28;20056;-67
2023/07/23 06:28:22;;;;;;;14.07;6.15;;;;;;;;;;5059385;28;20407;-69
2023/07/23 06:30:51;;;;;;;17.63;7.40;;;;;;;;;;5065049;28;20055;-69
2023/07/23 06:33:20;;;;;;;12.65;6.20;;;;;;;;;;5068849;28;20490;-68
2023/07/23 06:35:47;;;;;;;17.35;6.50;;;;;;;;;;5067083;28;20058;-68
2023/07/23 06:38:14;;;;;;;11.85;5.75;;;;;;;;;;5066668;28;20139;-68
2023/07/23 06:40:46;;;;;;;14.52;6.03;;;;;;;;;;5066339;28;20048;-68
2023/07/23 06:43:13;;;;;;;12.68;6.00;;;;;;;;;;5064102;28;20052;-67
2023/07/23 06:45:40;;;;;;;11.60;6.10;;;;;;;;;;5066904;28;20056;-67
2023/07/23 06:48:08;;;;;;;15.30;6.15;;;;;;;;;;5066857;28;20041;-67
2023/07/23 06:50:36;;;;;;;10.35;5.60;;;;;;;;;;5066786;28;20060;-68
2023/07/23 06:53:04;;;;;;;19.85;6.90;;;;;;;;;;5067040;28;20049;-68
2023/07/23 06:55:31;;;;;;;15.98;6.10;;;;;;;;;;5068074;28;20049;-68
2023/07/23 06:57:59;;;;;;;12.70;6.22;;;;;;;;;;5066378;28;20160;-69
2023/07/23 07:00:26;;;;;;;15.88;6.75;;;;;;;;;;5065988;28;20119;-68
2023/07/23 07:02:53;;;;;;;12.95;6.43;;;;;;;;;;5066123;28;20131;-68
2023/07/23 07:05:20;;;;;;;13.68;6.10;;;;;;;;;;5056206;28;20065;-67
2023/07/23 07:07:49;;;;;;;13.27;6.30;;;;;;;;;;5058268;28;20059;-68
2023/07/23 07:10:16;;;;;;;18.00;7.45;;;;;;;;;;5060313;28;20534;-67
2023/07/23 07:12:44;;;;;;;16.45;7.35;;;;;;;;;;5064332;28;20664;-67
2023/07/23 07:15:11;;;;;;;15.30;7.10;;;;;;;;;;5061742;28;20045;-66
2023/07/23 07:17:39;;;;;;;16.52;7.68;;;;;;;;;;5067217;28;20053;-66
2023/07/23 07:20:06;;;;;;;17.15;7.50;;;;;;;;;;5064412;28;20048;-66
2023/07/23 07:22:34;;;;;;;17.40;7.88;;;;;;;;;;5068474;28;20076;-65
2023/07/23 07:25:03;;;;;;;20.27;8.07;;;;;;;;;;5065199;28;20049;-67
2023/07/23 07:27:30;;;;;;;17.75;7.68;;;;;;;;;;5066821;28;20044;-66
2023/07/23 07:29:57;;;;;;;22.80;7.88;;;;;;;;;;5065976;28;20074;-67
2023/07/23 07:32:24;;;;;;;25.50;8.73;;;;;;;;;;5052223;28;20048;-67
2023/07/23 07:34:52;;;;;;;22.05;9.13;;;;;;;;;;5067056;28;20637;-67
2023/07/23 07:37:19;;;;;;;19.23;7.82;;;;;;;;;;5068066;28;20045;-68
2023/07/23 07:39:47;;;;;;;18.83;8.02;;;;;;;;;;5066924;28;20091;-67
2023/07/23 07:42:15;;;;;;;22.70;8.77;;;;;;;;;;5065550;28;20050;-67
2023/07/23 07:44:42;;;;;;;25.90;8.57;;;;;;;;;;5061724;28;20053;-66
2023/07/23 07:47:10;;;;;;;21.88;9.73;;;;;;;;;;5063912;28;20536;-67
2023/07/23 07:49:37;;;;;;;21.73;8.95;;;;;;;;;;5066617;28;20049;-67
2023/07/23 07:52:05;;;;;;;26.48;11.05;;;;;;;;;;5043387;28;20056;-67
2023/07/23 07:54:32;;;;;;;24.50;10.70;;;;;;;;;;5064824;28;20056;-67
2023/07/23 07:57:00;;;;;;;21.33;10.82;;;;;;;;;;5053018;28;20044;-67
2023/07/23 07:59:30;;;;;;;20.02;9.57;;;;;;;;;;5063730;28;20480;-67
2023/07/23 08:01:57;;;;;;;20.17;9.70;;;;;;;;;;5048537;28;20052;-67
2023/07/23 08:04:26;;;;;;;23.02;9.70;;;;;;;;;;5064723;28;20059;-67
2023/07/23 08:06:54;;;;;;;16.75;9.38;;;;;;;;;;5065363;28;20052;-67
2023/07/23 08:09:22;;;;;;;17.30;9.57;;;;;;;;;;5063130;28;20143;-68
2023/07/23 08:11:49;;;;;;;17.95;9.63;;;;;;;;;;5062628;28;20040;-67
2023/07/23 08:14:17;;;;;;;18.52;10.02;;;;;;;;;;5066767;28;20547;-67
2023/07/23 08:16:48;;;;;;;16.40;8.20;;;;;;;;;;5068839;28;20064;-68
2023/07/23 08:19:16;;;;;;;16.13;9.15;;;;;;;;;;5063324;28;20056;-66
2023/07/23 08:21:43;;;;;;;14.95;9.43;;;;;;;;;;5066181;28;20521;-67
2023/07/23 08:24:11;;;;;;;15.02;9.32;;;;;;;;;;5067575;28;20040;-68
2023/07/23 08:26:41;;;;;;;13.30;8.85;;;;;;;;;;5066295;28;20074;-68
2023/07/23 08:29:09;;;;;;;15.20;9.27;;;;;;;;;;5066690;28;20056;-67
2023/07/23 08:31:37;;;;;;;12.88;8.82;;;;;;;;;;5071163;28;20092;-67
2023/07/23 08:34:06;;;;;;;12.43;8.95;;;;;;;;;;5069688;28;20083;-67
2023/07/23 08:36:33;;;;;;;11.88;7.82;;;;;;;;;;5056639;28;20059;-67
2023/07/23 08:39:01;;;;;;;12.07;7.43;;;;;;;;;;5070946;28;20049;-67
2023/07/23 08:41:36;;;;;;;12.63;6.57;;;;;;;;;;5069565;28;20055;-67
2023/07/23 08:44:22;;;;;;;9.05;5.63;;;;;;;;;;5068595;28;20044;-68
2023/07/23 08:46:49;;;;;;;8.43;5.20;;;;;;;;;;5053719;28;20052;-67
2023/07/23 08:49:19;;;;;;;11.30;5.40;;;;;;;;;;5069691;28;20048;-67
2023/07/23 08:51:47;;;;;;;10.85;5.63;;;;;;;;;;5070088;28;20415;-67
2023/07/23 08:54:15;;;;;;;9.90;5.72;;;;;;;;;;5068341;28;20125;-68
2023/07/23 08:56:44;;;;;;;10.75;5.85;;;;;;;;;;5067813;28;20495;-66
2023/07/23 08:59:11;;;;;;;11.13;6.70;;;;;;;;;;5065710;28;20053;-66
2023/07/23 09:01:39;;;;;;;10.23;6.80;;;;;;;;;;5066808;28;20048;-67
2023/07/23 09:04:07;;;;;;;11.98;8.15;;;;;;;;;;5068714;28;20037;-66
2023/07/23 09:06:36;;;;;;;14.15;9.43;;;;;;;;;;5070187;28;20410;-68
2023/07/23 09:09:05;;;;;;;18.17;11.02;;;;;;;;;;5069999;28;20128;-67
2023/07/23 09:11:32;;;;;;;17.80;10.10;;;;;;;;;;5063780;28;20058;-69
2023/07/23 09:14:00;;;;;;;17.42;10.95;;;;;;;;;;5069220;28;20053;-66
2023/07/23 09:16:28;;;;;;;17.08;10.57;;;;;;;;;;5068296;28;20049;-68
2023/07/23 09:18:55;;;;;;;14.80;10.00;;;;;;;;;;5070873;28;20501;-67
2023/07/23 09:21:26;;;;;;;13.68;10.35;;;;;;;;;;5064615;28;20135;-67
2023/07/23 09:23:55;;;;;;;14.98;10.20;;;;;;;;;;5069607;28;20049;-67
2023/07/23 09:26:24;;;;;;;15.00;10.50;;;;;;;;;;5071337;28;20135;-68
2023/07/23 09:28:52;;;;;;;18.08;11.77;;;;;;;;;;5077014;28;20514;-68
2023/07/23 09:31:23;;;;;;;18.70;11.57;;;;;;;;;;5069499;28;20666;-67
2023/07/23 09:33:53;;;;;;;15.25;10.75;;;;;;;;;;5049642;28;20124;-67
2023/07/23 09:36:21;;;;;;;16.00;11.25;;;;;;;;;;5070843;28;20441;-67
2023/07/23 09:38:55;;;;;;;17.65;11.80;;;;;;;;;;5057667;28;20502;-69
2023/07/23 09:41:22;;;;;;;16.63;11.35;;;;;;;;;;5069696;28;20056;-69
2023/07/23 09:43:51;;;;;;;16.67;12.05;;;;;;;;;;5069455;28;20053;-71
2023/07/23 09:46:18;;;;;;;18.73;13.82;;;;;;;;;;5069250;28;20044;-69
2023/07/23 09:48:49;;;;;;;17.30;11.90;;;;;;;;;;5069598;28;20044;-70
2023/07/23 09:51:16;;;;;;;14.73;11.50;;;;;;;;;;5066546;28;20647;-70
2023/07/23 09:53:45;;;;;;;19.25;11.98;;;;;;;;;;5061917;28;20051;-69
2023/07/23 09:56:15;;;;;;;13.98;10.70;;;;;;;;;;5047765;28;20155;-70
2023/07/23 09:58:47;;;;;;;13.93;10.00;;;;;;;;;;5065318;28;20045;-72
2023/07/23 10:01:16;;;;;;;14.70;10.40;;;;;;;;;;5068499;28;21705;-72
2023/07/23 10:03:44;;;;;;;14.98;10.77;;;;;;;;;;5068103;28;20084;-70
2023/07/23 10:06:12;;;;;;;15.07;10.90;;;;;;;;;;5065878;28;20040;-70
2023/07/23 10:08:41;;;;;;;14.80;10.82;;;;;;;;;;5063047;28;20123;-69
2023/07/23 10:11:08;;;;;;;17.05;10.85;;;;;;;;;;5066597;28;20056;-69
2023/07/23 10:13:37;;;;;;;15.05;10.57;;;;;;;;;;5073222;28;20724;-71
2023/07/23 10:16:06;;;;;;;15.13;10.07;;;;;;;;;;5072195;28;20598;-72
2023/07/23 10:18:34;;;;;;;16.35;10.23;;;;;;;;;;5068682;28;20633;-70
2023/07/23 10:21:02;;;;;;;14.82;9.95;;;;;;;;;;5064302;28;20044;-70
2023/07/23 10:23:30;;;;;;;16.00;10.20;;;;;;;;;;5068955;28;20056;-70
2023/07/23 10:26:12;;;;;;;16.55;9.95;;;;;;;;;;5069789;28;20048;-71
2023/07/23 10:28:40;;;;;;;18.08;11.10;;;;;;;;;;5064699;28;20049;-71
2023/07/23 10:31:24;;;;;;;16.13;10.57;;;;;;;;;;5053732;28;20514;-70
2023/07/23 10:33:50;;;;;;;15.13;10.68;;;;;;;;;;5063891;28;20162;-72
2023/07/23 10:36:18;;;;;;;14.02;10.40;;;;;;;;;;5066381;28;20041;-72
2023/07/23 10:38:46;;;;;;;13.38;10.38;;;;;;;;;;5067920;28;20045;-72
2023/07/23 10:41:14;;;;;;;18.17;10.18;;;;;;;;;;5067042;28;20059;-70
2023/07/23 10:43:48;;;;;;;16.02;10.57;;;;;;;;;;5061156;28;20056;-74
2023/07/23 10:46:16;;;;;;;14.70;9.73;;;;;;;;;;5065352;28;20044;-71
2023/07/23 10:48:45;;;;;;;14.18;10.52;;;;;;;;;;5067054;28;20131;-71
2023/07/23 10:51:13;;;;;;;14.23;10.20;;;;;;;;;;5043894;28;20509;-71
2023/07/23 10:53:41;;;;;;;17.08;10.77;;;;;;;;;;5067797;28;20071;-72
2023/07/23 10:56:23;;;;;;;12.13;9.15;;;;;;;;;;5066973;28;20425;-72
2023/07/23 10:58:52;;;;;;;16.60;10.23;;;;;;;;;;5059914;28;20081;-73
2023/07/23 11:01:22;;;;;;;12.32;9.32;;;;;;;;;;5068105;28;20048;-70
2023/07/23 11:03:50;;;;;;;11.85;8.63;;;;;;;;;;5063504;28;20410;-73
2023/07/23 11:06:35;;;;;;;15.23;9.93;;;;;;;;;;5068638;28;20067;-72
2023/07/23 11:09:10;;;;;;;16.23;10.50;;;;;;;;;;5057734;28;20071;-71
2023/07/23 11:11:39;;;;;;;15.23;10.52;;;;;;;;;;5066656;28;20051;-71
2023/07/23 11:14:18;;;;;;;17.83;11.82;;;;;;;;;;5068699;28;20055;-69
2023/07/23 11:16:46;;;;;;;20.55;12.10;;;;;;;;;;5065065;28;20174;-70
2023/07/23 11:19:14;;;;;;;16.50;11.75;;;;;;;;;;5066812;28;20055;-71
2023/07/23 11:21:49;;;;;;;15.93;11.70;;;;;;;;;;5068342;28;20498;-71
2023/07/23 11:24:16;;;;;;;17.85;11.95;;;;;;;;;;5059296;28;20048;-74
2023/07/23 11:26:44;;;;;;;16.50;11.25;;;;;;;;;;5067899;28;20051;-72
2023/07/23 11:29:11;;;;;;;17.30;11.50;;;;;;;;;;5067887;28;20049;-71
2023/07/23 11:31:40;;;;;;;16.10;11.70;;;;;;;;;;5048949;28;20075;-71
2023/07/23 11:34:07;;;;;;;15.40;11.55;;;;;;;;;;5065387;28;20071;-71
2023/07/23 11:36:35;;;;;;;18.55;13.07;;;;;;;;;;5067003;28;20049;-72
2023/07/23 11:39:03;;;;;;;17.88;11.98;;;;;;;;;;5053697;28;20121;-71
2023/07/23 11:41:32;;;;;;;18.23;12.45;;;;;;;;;;5066058;28;20427;-70
2023/07/23 11:44:03;;;;;;;19.33;13.02;;;;;;;;;;5068417;28;20053;-71
2023/07/23 11:46:31;;;;;;;15.80;11.82;;;;;;;;;;5065523;28;20049;-72
2023/07/23 11:49:00;;;;;;;16.00;11.60;;;;;;;;;;5064552;28;20060;-72
2023/07/23 11:51:29;;;;;;;15.23;11.45;;;;;;;;;;5052074;28;20499;-72
2023/07/23 11:54:02;;;;;;;18.10;11.43;;;;;;;;;;5067048;28;20380;-71
2023/07/23 11:56:30;;;;;;;;;;;;;;;;;;5067921;28;20132;-72
2023/07/23 11:59:03;;;;;;;17.00;10.50;;;;;;;;;;5060358;28;19921;-71
2023/07/23 12:01:30;;;;;;;17.67;11.57;;;;;;;;;;5067045;28;20051;-70
2023/07/23 12:04:00;;;;;;;15.35;10.98;;;;;;;;;;5071496;28;20530;-70
2023/07/23 12:06:30;;;;;;;14.52;10.57;;;;;;;;;;5071661;28;20053;-71
2023/07/23 12:08:57;;;;;;;12.57;10.13;;;;;;;;;;5056339;28;20109;-71
2023/07/23 12:11:25;;;;;;;15.45;10.40;;;;;;;;;;5052943;28;20068;-71
2023/07/23 12:13:53;;;;;;;17.63;10.48;;;;;;;;;;5069642;28;20245;-71
2023/07/23 12:16:33;;;;;;;14.55;10.40;;;;;;;;;;5064006;28;20376;-71
2023/07/23 12:19:02;;;;;;;15.48;9.65;;;;;;;;;;5064686;28;20060;-70
2023/07/23 12:21:30;;;;;;;14.93;10.40;;;;;;;;;;5072013;28;20507;-71
2023/07/23 12:23:58;;;;;;;15.10;10.50;;;;;;;;;;5070318;28;20099;-70
2023/07/23 12:26:25;;;;;;;13.77;9.85;;;;;;;;;;5071711;28;20407;-70
2023/07/23 12:28:52;;;;;;;12.63;9.00;;;;;;;;;;5066230;28;20056;-70
2023/07/23 12:31:19;;;;;;;14.30;9.05;;;;;;;;;;5071542;28;20048;-69
2023/07/23 12:33:47;;;;;;;12.70;8.30;;;;;;;;;;5070985;28;20174;-70
2023/07/23 12:36:14;;;;;;;11.20;7.85;;;;;;;;;;5071221;28;20040;-70
2023/07/23 12:38:42;;;;;;;9.63;6.55;;;;;;;;;;5071403;28;20049;-70
2023/07/23 12:41:10;;;;;;;11.18;5.57;;;;;;;;;;5070275;28;20053;-70
2023/07/23 12:43:38;;;;;;;7.60;4.68;;;;;;;;;;5070196;28;20052;-72
2023/07/23 12:46:05;;;;;;;6.72;4.47;;;;;;;;;;5069101;28;20046;-69
2023/07/23 12:48:33;;;;;;;8.02;3.92;;;;;;;;;;5073463;28;20078;-70
2023/07/23 12:51:00;;;;;;;7.05;3.90;;;;;;;;;;5055806;28;20040;-70
2023/07/23 12:53:27;;;;;;;5.50;3.08;;;;;;;;;;5055568;28;20057;-70
2023/07/23 12:55:56;;;;;;;5.47;3.00;;;;;;;;;;5068127;28;20463;-70
2023/07/23 12:58:23;;;;;;;4.70;2.75;;;;;;;;;;5067892;28;20532;-70
2023/07/23 13:00:51;;;;;;;7.25;3.25;;;;;;;;;;5066420;28;20512;-68
2023/07/23 13:03:18;;;;;;;7.00;3.17;;;;;;;;;;5068737;28;20070;-69
2023/07/23 13:05:45;;;;;;;6.53;2.15;;;;;;;;;;5058479;28;20049;-71
2023/07/23 13:08:13;;;;;;;6.13;2.10;;;;;;;;;;5069979;28;20567;-71
2023/07/23 13:10:40;;;;;;;5.38;2.17;;;;;;;;;;5069180;28;20070;-71
2023/07/23 13:13:08;;;;;;;6.57;1.98;;;;;;;;;;5072465;28;20054;-70
2023/07/23 13:15:36;;;;;;;4.68;2.00;;;;;;;;;;5070984;28;20427;-69
2023/07/23 13:18:03;;;;;;;6.57;1.90;;;;;;;;;;5069747;28;20052;-70
2023/07/23 13:20:30;;;;;;;7.55;2.58;;;;;;;;;;5070355;28;20052;-69
2023/07/23 13:22:59;;;;;;;5.53;2.15;;;;;;;;;;5069334;28;20051;-70
2023/07/23 13:25:27;;;;;;;5.55;1.95;;;;;;;;;;5065888;28;20052;-71
2023/07/23 13:27:54;;;;;;;7.22;2.35;;;;;;;;;;5066817;28;20036;-71
2023/07/23 13:30:23;;;;;;;6.65;1.80;;;;;;;;;;5069046;28;20507;-71
2023/07/23 13:32:50;;;;;;;5.90;2.35;;;;;;;;;;5068457;28;20052;-69
2023/07/23 13:35:17;;;;;;;7.90;2.80;;;;;;;;;;5070556;28;20066;-71
2023/07/23 13:37:45;;;;;;;5.43;2.00;;;;;;;;;;5068257;28;20044;-71
2023/07/23 13:40:12;;;;;;;4.25;2.03;;;;;;;;;;5055286;28;20558;-71
2023/07/23 13:42:40;;;;;;;6.38;2.13;;;;;;;;;;5068629;28;20426;-70
2023/07/23 13:45:08;;;;;;;7.05;2.22;;;;;;;;;;5077409;28;20093;-72
2023/07/23 13:47:37;;;;;;;7.72;2.30;;;;;;;;;;5067628;28;20087;-72
2023/07/23 13:50:04;;;;;;;7.43;1.98;;;;;;;;;;5061912;28;20044;-72
2023/07/23 13:52:31;;;;;;;10.35;1.90;;;;;;;;;;5069391;28;20124;-72
2023/07/23 13:55:00;;;;;;;4.60;2.00;;;;;;;;;;5068781;28;20411;-71
2023/07/23 13:57:28;;;;;;;4.70;2.28;;;;;;;;;;5066832;28;20159;-71
2023/07/23 13:59:55;;;;;;;7.68;2.70;;;;;;;;;;5052660;28;20293;-72
2023/07/23 14:02:23;;;;;;;5.60;2.05;;;;;;;;;;5067981;28;20048;-70
2023/07/23 14:04:52;;;;;;;4.75;2.03;;;;;;;;;;5065855;28;20052;-70
2023/07/23 14:07:19;;;;;;;9.07;2.20;;;;;;;;;;5065856;28;20055;-70
2023/07/23 14:09:46;;;;;;;6.22;2.00;;;;;;;;;;5057264;28;20055;-73
2023/07/23 14:12:13;;;;;;;5.70;2.28;;;;;;;;;;5069384;28;20052;-70
2023/07/23 14:14:41;;;;;;;8.38;2.00;;;;;;;;;;5071119;28;20040;-70
2023/07/23 14:17:09;;;;;;;9.13;2.35;;;;;;;;;;5070918;28;20044;-71
2023/07/23 14:19:37;;;;;;;7.93;2.30;;;;;;;;;;5068400;28;20049;-70
2023/07/23 14:22:06;;;;;;;6.78;2.28;;;;;;;;;;5067149;28;20075;-71
2023/07/23 14:24:33;;;;;;;8.57;2.50;;;;;;;;;;5069999;28;20044;-70
2023/07/23 14:27:01;;;;;;;7.03;2.47;;;;;;;;;;5066972;28;20040;-70
2023/07/23 14:29:28;;;;;;;7.63;2.20;;;;;;;;;;5069241;28;20048;-70
2023/07/23 14:31:55;;;;;;;5.25;2.15;;;;;;;;;;5067905;28;20817;-71
2023/07/23 14:34:23;;;;;;;7.03;2.50;;;;;;;;;;5064002;28;20071;-72